Time;durP1;ratioP1;P1;durP2;ratioP2;P2;SDS_P1;SDS_P2;PMS_P1;PMS_P2;Temp;Humidity;BMP_temperature;BMP_pressure;BME280_temperature;BME280_humidity;BME280_pressure;Samples;Min_cycle;Max_cycle;Signal;HPM_P1;HPM_P2
2022/08/23 00:00:36;;;;;;;2.90;2.80;;;18.60;99.90;;;;;;5233797;28;20262;-47
2022/08/23 00:03:07;;;;;;;3.50;3.20;;;18.50;99.90;;;;;;5243113;28;20193;-49
2022/08/23 00:05:37;;;;;;;5.43;3.80;;;18.50;99.90;;;;;;5245864;28;20210;-49
2022/08/23 00:08:08;;;;;;;3.30;3.10;;;18.50;99.90;;;;;;5250359;28;20179;-49
2022/08/23 00:10:38;;;;;;;8.00;4.33;;;18.50;99.90;;;;;;5239038;28;20203;-48
2022/08/23 00:13:09;;;;;;;6.83;3.57;;;18.50;99.90;;;;;;5239286;28;20178;-49
2022/08/23 00:15:40;;;;;;;3.67;3.30;;;18.50;99.90;;;;;;5237675;28;20209;-47
2022/08/23 00:18:10;;;;;;;5.00;3.60;;;18.50;99.90;;;;;;5234145;28;20383;-48
2022/08/23 00:20:41;;;;;;;5.53;3.77;;;18.40;99.90;;;;;;5245915;28;20189;-48
2022/08/23 00:23:12;;;;;;;9.77;4.40;;;18.40;99.90;;;;;;5245555;28;20584;-48
2022/08/23 00:25:43;;;;;;;4.00;3.77;;;18.40;99.90;;;;;;5244186;28;20598;-48
2022/08/23 00:28:14;;;;;;;3.50;3.30;;;18.30;99.90;;;;;;5248422;28;20182;-48
2022/08/23 00:30:44;;;;;;;5.10;3.40;;;18.30;99.90;;;;;;5246564;28;20464;-49
2022/08/23 00:33:15;;;;;;;5.27;4.00;;;18.30;99.90;;;;;;5246537;28;20201;-49
2022/08/23 00:35:45;;;;;;;3.83;3.53;;;18.30;99.90;;;;;;5242892;28;20557;-49
2022/08/23 00:38:16;;;;;;;4.97;3.30;;;18.30;99.90;;;;;;5246466;28;20178;-48
2022/08/23 00:40:49;;;;;;;4.60;3.70;;;18.30;99.90;;;;;;5244558;28;20222;-47
2022/08/23 00:49:39;;;;;;;9.77;3.60;;;18.30;99.90;;;;;;5243528;28;20459;-48
2022/08/23 00:52:15;;;;;;;4.27;3.87;;;18.30;99.90;;;;;;5231171;28;20450;-48
2022/08/23 00:54:46;;;;;;;4.37;3.50;;;18.30;99.90;;;;;;5260452;28;20427;-47
2022/08/23 00:57:18;;;;;;;7.87;2.93;;;18.30;99.90;;;;;;5247439;28;20942;-49
2022/08/23 00:59:49;;;;;;;3.20;3.10;;;18.30;99.90;;;;;;5241776;28;20247;-47
2022/08/23 01:02:19;;;;;;;4.07;3.30;;;18.30;99.90;;;;;;5246427;28;20527;-48
2022/08/23 01:04:57;;;;;;;4.53;2.67;;;18.30;99.90;;;;;;5238395;28;20544;-48
2022/08/23 01:07:46;;;;;;;7.30;3.30;;;18.30;99.90;;;;;;5242221;28;20688;-47
2022/08/23 01:10:40;;;;;;;4.90;3.13;;;18.40;99.90;;;;;;5238209;28;20457;-48
2022/08/23 01:13:20;;;;;;;12.10;3.10;;;18.50;99.90;;;;;;5253824;28;20482;-49
2022/08/23 01:16:15;;;;;;;6.80;3.27;;;18.40;99.90;;;;;;5242877;28;20440;-48
2022/08/23 01:18:47;;;;;;;6.90;3.00;;;18.30;99.90;;;;;;5263459;28;20421;-47
2022/08/23 01:21:37;;;;;;;3.97;3.13;;;18.30;99.90;;;;;;5245383;28;20436;-48
2022/08/23 01:24:09;;;;;;;3.63;3.30;;;18.30;99.90;;;;;;5248180;28;20537;-48
2022/08/23 01:26:41;;;;;;;2.57;2.37;;;18.30;99.90;;;;;;5247244;28;20460;-48
2022/08/23 01:29:12;;;;;;;3.77;3.00;;;18.30;99.90;;;;;;5228110;28;20459;-48
2022/08/23 01:31:43;;;;;;;3.07;2.87;;;18.30;99.90;;;;;;5246324;28;20459;-48
2022/08/23 01:34:16;;;;;;;3.17;2.60;;;18.30;99.90;;;;;;5246322;28;20443;-47
2022/08/23 01:36:47;;;;;;;5.80;2.80;;;18.30;99.90;;;;;;5254088;28;20182;-49
2022/08/23 01:39:17;;;;;;;5.50;3.00;;;18.30;99.90;;;;;;5235134;28;20533;-48
2022/08/23 01:41:49;;;;;;;3.83;2.73;;;18.20;99.90;;;;;;5248620;28;20190;-48
2022/08/23 01:44:19;;;;;;;3.60;2.70;;;18.20;99.90;;;;;;5242451;28;20244;-49
2022/08/23 01:46:50;;;;;;;3.73;2.53;;;18.30;99.90;;;;;;5246084;28;20944;-49
2022/08/23 01:49:20;;;;;;;3.47;2.73;;;18.30;99.90;;;;;;5243132;28;20202;-49
2022/08/23 01:51:51;;;;;;;3.90;2.87;;;18.30;99.90;;;;;;5249118;28;20549;-48
2022/08/23 01:54:22;;;;;;;3.40;2.83;;;18.30;99.90;;;;;;5258760;28;20243;-47
2022/08/23 01:56:53;;;;;;;3.83;2.23;;;18.40;99.90;;;;;;5256204;28;20182;-48
2022/08/23 01:59:23;;;;;;;3.43;2.53;;;18.30;99.90;;;;;;5245324;28;20669;-47
2022/08/23 02:01:54;;;;;;;2.43;2.20;;;18.30;99.90;;;;;;5246548;28;20190;-48
2022/08/23 02:04:26;;;;;;;3.80;2.57;;;18.30;99.90;;;;;;5244550;28;20203;-49
2022/08/23 02:06:57;;;;;;;2.50;2.30;;;18.30;99.90;;;;;;5258035;28;20266;-48
2022/08/23 02:09:27;;;;;;;2.63;2.53;;;18.30;99.90;;;;;;5242788;28;20872;-48
2022/08/23 02:11:58;;;;;;;2.23;2.13;;;18.30;99.90;;;;;;5241608;28;20559;-47
2022/08/23 02:14:29;;;;;;;6.00;2.70;;;18.30;99.90;;;;;;5240061;28;20203;-49
2022/08/23 02:16:59;;;;;;;2.47;2.27;;;18.30;99.90;;;;;;5243695;28;20652;-48
2022/08/23 02:19:31;;;;;;;6.43;3.17;;;18.20;99.90;;;;;;5246803;28;20182;-47
2022/08/23 02:22:03;;;;;;;3.83;2.37;;;18.20;99.90;;;;;;5248454;28;20494;-48
2022/08/23 02:24:38;;;;;;;3.60;2.63;;;18.10;99.90;;;;;;5240280;28;20464;-49
2022/08/23 02:27:09;;;;;;;6.00;2.43;;;18.10;99.90;;;;;;5248133;28;20450;-48
2022/08/23 02:29:43;;;;;;;3.27;2.37;;;18.10;99.90;;;;;;5241549;28;20464;-49
2022/08/23 02:32:16;;;;;;;11.17;2.97;;;18.10;99.90;;;;;;5248839;28;21008;-48
2022/08/23 02:34:47;;;;;;;7.60;2.90;;;18.10;99.90;;;;;;5245253;28;20463;-48
2022/08/23 02:37:18;;;;;;;6.53;2.67;;;18.10;99.90;;;;;;5249233;28;20487;-48
2022/08/23 02:39:48;;;;;;;4.80;2.53;;;18.10;99.90;;;;;;5244606;28;21003;-48
2022/08/23 02:42:19;;;;;;;4.33;2.73;;;18.10;99.90;;;;;;5237464;28;20190;-49
2022/08/23 02:44:50;;;;;;;3.07;2.77;;;18.00;99.90;;;;;;5246197;28;20245;-48
2022/08/23 02:47:21;;;;;;;4.50;3.00;;;18.10;99.90;;;;;;5240250;28;20182;-49
2022/08/23 02:49:52;;;;;;;3.10;2.80;;;18.00;99.90;;;;;;5230353;28;20211;-48
2022/08/23 02:52:23;;;;;;;6.87;2.60;;;18.00;99.90;;;;;;5243755;28;20183;-47
2022/08/23 02:54:53;;;;;;;3.70;2.97;;;18.00;99.90;;;;;;5247376;28;20530;-48
2022/08/23 02:57:24;;;;;;;3.67;2.60;;;18.00;99.90;;;;;;5245503;28;20261;-49
2022/08/23 02:59:55;;;;;;;3.43;3.13;;;18.00;99.90;;;;;;5244288;28;20639;-48
2022/08/23 03:02:26;;;;;;;3.77;3.47;;;18.00;99.90;;;;;;5230078;28;20546;-47
2022/08/23 03:04:56;;;;;;;5.37;2.80;;;18.00;99.90;;;;;;5251398;28;20453;-48
2022/08/23 03:07:27;;;;;;;4.43;2.90;;;18.00;99.90;;;;;;5241572;28;20182;-48
2022/08/23 03:09:58;;;;;;;4.03;3.60;;;18.00;99.90;;;;;;5236822;28;20241;-47
2022/08/23 03:12:28;;;;;;;10.33;3.87;;;18.00;99.90;;;;;;5246284;28;20533;-47
2022/08/23 03:14:59;;;;;;;4.93;3.43;;;17.90;99.90;;;;;;5243836;28;20208;-48
2022/08/23 03:17:29;;;;;;;5.43;3.93;;;17.90;99.90;;;;;;5246136;28;20219;-48
2022/08/23 03:20:00;;;;;;;3.47;3.20;;;17.80;99.90;;;;;;5242683;28;20177;-48
2022/08/23 03:22:31;;;;;;;4.60;3.40;;;17.80;99.90;;;;;;5228038;28;20662;-48
2022/08/23 03:25:01;;;;;;;4.60;3.00;;;17.80;99.90;;;;;;5272310;22;20259;-48
2022/08/23 03:27:33;;;;;;;7.80;3.33;;;17.80;99.90;;;;;;5257553;28;20650;-47
2022/08/23 03:30:05;;;;;;;4.70;3.40;;;17.80;99.90;;;;;;5268961;28;20217;-47
2022/08/23 03:32:36;;;;;;;3.87;3.50;;;17.80;99.90;;;;;;5269206;28;20439;-47
2022/08/23 03:35:07;;;;;;;10.00;3.93;;;17.80;99.90;;;;;;5259255;28;20461;-48
2022/08/23 03:37:37;;;;;;;6.73;3.07;;;17.70;99.90;;;;;;5263404;28;20224;-49
2022/08/23 03:40:09;;;;;;;3.27;3.07;;;17.70;99.90;;;;;;5263479;28;20477;-46
2022/08/23 03:42:39;;;;;;;5.70;3.30;;;17.70;99.90;;;;;;5263104;28;20282;-48
2022/08/23 03:45:10;;;;;;;7.50;4.13;;;17.80;99.90;;;;;;5266577;28;20508;-47
2022/08/23 03:47:42;;;;;;;5.17;4.67;;;17.80;99.90;;;;;;5260635;28;20185;-48
2022/08/23 03:50:12;;;;;;;3.97;3.53;;;17.80;99.90;;;;;;5259498;28;20754;-49
2022/08/23 03:52:43;;;;;;;3.10;2.90;;;17.80;99.90;;;;;;5263589;28;20470;-48
2022/08/23 03:55:15;;;;;;;6.37;3.60;;;17.80;99.90;;;;;;5258683;28;20213;-46
2022/08/23 03:57:45;;;;;;;6.47;3.50;;;17.90;99.90;;;;;;5261801;28;20186;-48
2022/08/23 04:00:16;;;;;;;4.10;3.83;;;17.80;99.90;;;;;;5262318;28;20461;-49
2022/08/23 04:02:47;;;;;;;10.50;4.40;;;17.80;99.90;;;;;;5256404;28;20178;-48
2022/08/23 04:05:17;;;;;;;5.23;3.47;;;17.80;99.90;;;;;;5251246;28;20208;-47
2022/08/23 04:07:48;;;;;;;9.70;4.00;;;17.80;99.90;;;;;;5251489;28;20194;-48
2022/08/23 04:10:19;;;;;;;3.50;3.20;;;17.80;99.90;;;;;;5256526;28;20229;-49
2022/08/23 04:12:51;;;;;;;8.00;4.07;;;17.80;99.90;;;;;;5266623;28;20182;-49
2022/08/23 04:15:22;;;;;;;6.30;4.23;;;17.80;99.90;;;;;;5259211;28;20991;-48
2022/08/23 04:17:52;;;;;;;4.63;4.03;;;17.80;99.90;;;;;;5261557;28;20467;-47
2022/08/23 04:20:23;;;;;;;8.37;4.70;;;17.80;99.90;;;;;;5266154;28;20187;-47
2022/08/23 04:22:55;;;;;;;7.13;4.67;;;17.80;99.90;;;;;;5252011;28;20662;-47
2022/08/23 04:25:26;;;;;;;5.47;3.70;;;17.80;99.90;;;;;;5282585;28;20509;-47
2022/08/23 04:27:56;;;;;;;4.67;4.20;;;17.80;99.90;;;;;;5290881;27;20986;-48
2022/08/23 04:30:27;;;;;;;11.83;4.00;;;17.80;99.90;;;;;;5301005;27;20208;-48
2022/08/23 04:32:58;;;;;;;8.87;4.57;;;17.90;99.90;;;;;;5291172;27;20217;-47
2022/08/23 04:35:28;;;;;;;6.43;4.47;;;17.90;99.90;;;;;;5273591;27;20208;-48
2022/08/23 04:37:59;;;;;;;3.93;3.63;;;18.00;99.90;;;;;;5281522;27;20177;-47
2022/08/23 04:43:19;;;;;;;5.70;3.63;;;18.00;99.90;;;;;;5276436;28;20269;-48
2022/08/23 04:45:50;;;;;;;7.03;4.10;;;18.00;99.90;;;;;;5283652;27;20509;-48
2022/08/23 04:48:22;;;;;;;3.80;3.10;;;18.00;99.90;;;;;;5278214;28;20192;-48
2022/08/23 04:50:52;;;;;;;8.00;4.17;;;18.00;99.90;;;;;;5290643;27;20610;-48
2022/08/23 04:53:23;;;;;;;3.80;3.40;;;18.00;99.90;;;;;;5273476;28;20440;-47
2022/08/23 04:55:55;;;;;;;5.00;3.60;;;18.00;99.90;;;;;;5272178;28;20629;-48
2022/08/23 04:58:26;;;;;;;4.43;4.03;;;18.10;99.90;;;;;;5272403;28;20422;-48
2022/08/23 05:00:59;;;;;;;5.43;3.90;;;18.10;99.90;;;;;;5275359;28;20443;-47
2022/08/23 05:03:30;;;;;;;5.20;3.50;;;18.10;99.90;;;;;;5280601;27;20448;-48
2022/08/23 05:06:03;;;;;;;12.00;4.50;;;18.10;99.90;;;;;;5283759;27;20485;-46
2022/08/23 05:08:34;;;;;;;5.10;4.13;;;18.20;99.90;;;;;;5283190;27;20438;-47
2022/08/23 05:11:07;;;;;;;3.80;3.50;;;18.20;99.90;;;;;;5274927;28;20536;-50
2022/08/23 05:13:38;;;;;;;6.60;4.30;;;18.10;99.90;;;;;;5287782;27;20181;-50
2022/08/23 05:16:09;;;;;;;7.20;3.80;;;18.20;99.90;;;;;;5274280;28;20477;-48
2022/08/23 05:18:40;;;;;;;3.73;3.40;;;18.20;99.90;;;;;;5284393;27;20450;-47
2022/08/23 05:21:21;;;;;;;8.10;4.00;;;18.30;99.90;;;;;;5286087;27;20655;-48
2022/08/23 05:23:53;;;;;;;7.70;3.63;;;18.30;99.90;;;;;;5289121;27;20474;-49
2022/08/23 05:26:23;;;;;;;6.00;4.00;;;18.40;99.90;;;;;;5286705;27;20493;-49
2022/08/23 05:28:54;;;;;;;7.03;3.83;;;18.40;99.90;;;;;;5279947;27;20906;-50
2022/08/23 05:31:26;;;;;;;4.07;3.77;;;18.50;99.90;;;;;;5280096;27;20234;-49
2022/08/23 05:33:57;;;;;;;7.10;4.27;;;18.50;99.90;;;;;;5280236;28;20185;-48
2022/08/23 05:36:28;;;;;;;11.30;4.07;;;18.60;99.90;;;;;;5278776;28;20462;-47
2022/08/23 05:38:59;;;;;;;4.23;4.00;;;18.60;99.90;;;;;;5283399;28;20473;-50
2022/08/23 05:41:29;;;;;;;9.70;3.97;;;18.70;99.90;;;;;;5270487;28;20197;-49
2022/08/23 05:44:00;;;;;;;6.70;4.47;;;18.60;99.90;;;;;;5276455;27;20579;-48
2022/08/23 05:46:32;;;;;;;5.47;3.90;;;18.60;99.90;;;;;;5274842;28;20601;-50
2022/08/23 05:49:03;;;;;;;5.00;3.60;;;18.60;99.90;;;;;;5282155;28;20549;-49
2022/08/23 05:51:34;;;;;;;3.67;3.23;;;18.70;99.90;;;;;;5285449;27;20439;-49
2022/08/23 05:54:07;;;;;;;3.67;3.37;;;18.80;99.90;;;;;;5282157;28;20443;-47
2022/08/23 05:56:41;;;;;;;9.07;4.00;;;18.90;99.90;;;;;;5282238;27;20518;-50
2022/08/23 05:59:14;;;;;;;4.27;3.60;;;19.00;99.90;;;;;;5285925;27;20433;-49
2022/08/23 06:01:45;;;;;;;4.33;3.97;;;19.00;99.90;;;;;;5281548;28;20939;-50
2022/08/23 06:04:15;;;;;;;9.03;4.27;;;19.00;99.90;;;;;;5279282;27;20470;-50
2022/08/23 06:06:47;;;;;;;4.20;3.90;;;19.00;99.90;;;;;;5287977;28;20229;-49
2022/08/23 06:09:18;;;;;;;4.00;3.70;;;19.00;99.90;;;;;;5284204;27;20656;-49
2022/08/23 06:11:49;;;;;;;5.53;3.93;;;19.10;99.90;;;;;;5282590;27;20459;-49
2022/08/23 06:14:20;;;;;;;7.40;3.90;;;19.20;99.90;;;;;;5279770;28;20438;-49
2022/08/23 06:16:50;;;;;;;6.80;4.17;;;19.30;99.90;;;;;;5287993;27;20269;-48
2022/08/23 06:19:22;;;;;;;10.20;4.60;;;19.50;99.90;;;;;;5284275;28;20185;-49
2022/08/23 06:21:54;;;;;;;5.20;3.73;;;19.70;99.90;;;;;;5284072;27;20173;-50
2022/08/23 06:24:25;;;;;;;4.87;3.67;;;19.90;99.90;;;;;;5287943;27;20466;-51
2022/08/23 06:26:56;;;;;;;5.83;3.50;;;20.10;99.90;;;;;;5284972;27;20462;-51
2022/08/23 06:29:27;;;;;;;11.47;3.90;;;20.40;99.90;;;;;;5285389;28;20496;-47
2022/08/23 06:31:57;;;;;;;4.23;3.77;;;20.60;99.90;;;;;;5281759;28;20220;-49
2022/08/23 06:34:32;;;;;;;7.63;2.90;;;20.70;99.90;;;;;;5284404;28;20532;-49
2022/08/23 06:37:04;;;;;;;5.80;2.97;;;20.60;99.90;;;;;;5282938;28;20240;-49
2022/08/23 06:39:36;;;;;;;4.30;3.70;;;20.50;99.90;;;;;;5282037;28;20527;-49
2022/08/23 06:42:11;;;;;;;7.77;3.57;;;20.40;99.90;;;;;;5289318;27;20504;-50
2022/08/23 06:44:41;;;;;;;7.63;3.40;;;20.40;99.90;;;;;;5277524;27;20483;-50
2022/08/23 06:47:12;;;;;;;5.07;3.60;;;20.40;99.90;;;;;;5278346;28;20980;-49
2022/08/23 06:49:42;;;;;;;6.77;3.40;;;20.50;99.90;;;;;;5284595;27;20197;-49
2022/08/23 06:52:14;;;;;;;6.90;3.57;;;20.70;99.90;;;;;;5283066;28;20260;-49
2022/08/23 06:54:46;;;;;;;7.40;3.70;;;20.90;99.90;;;;;;5279838;27;20197;-48
2022/08/23 06:57:16;;;;;;;4.00;3.33;;;20.90;99.90;;;;;;5274841;28;20818;-48
2022/08/23 06:59:50;;;;;;;6.77;3.17;;;21.00;99.90;;;;;;5279939;27;20468;-49
2022/08/23 07:02:20;;;;;;;6.43;3.07;;;21.00;99.90;;;;;;5274339;28;20189;-50
2022/08/23 07:04:54;;;;;;;3.47;3.20;;;21.00;99.90;;;;;;5280677;28;20454;-49
2022/08/23 07:07:25;;;;;;;3.77;3.20;;;21.10;99.90;;;;;;5272978;27;20181;-49
2022/08/23 07:09:55;;;;;;;3.27;3.07;;;21.20;99.90;;;;;;5285099;28;20470;-49
2022/08/23 07:12:26;;;;;;;2.63;2.53;;;21.40;99.90;;;;;;5287975;28;20286;-51
2022/08/23 07:14:56;;;;;;;4.77;3.30;;;21.40;99.90;;;;;;5278013;27;20201;-48
2022/08/23 07:17:27;;;;;;;4.13;3.57;;;21.50;99.90;;;;;;5279221;27;20207;-50
2022/08/23 07:19:57;;;;;;;4.13;2.87;;;21.50;99.90;;;;;;5287645;28;20241;-51
2022/08/23 07:22:28;;;;;;;6.93;3.20;;;21.40;99.90;;;;;;5270223;28;20281;-51
2022/08/23 07:24:58;;;;;;;4.73;2.93;;;21.30;99.90;;;;;;5271367;28;20234;-50
2022/08/23 07:27:29;;;;;;;13.83;3.27;;;21.30;99.90;;;;;;5282114;28;20664;-49
2022/08/23 07:30:01;;;;;;;4.63;3.10;;;21.40;99.90;;;;;;5282810;28;21496;-50
2022/08/23 07:32:32;;;;;;;4.40;3.00;;;21.40;99.90;;;;;;5288782;27;20181;-51
2022/08/23 07:35:04;;;;;;;4.03;3.47;;;21.40;99.90;;;;;;5283018;28;20797;-51
2022/08/23 07:37:36;;;;;;;3.63;3.00;;;21.50;99.90;;;;;;5271350;28;21047;-50
2022/08/23 07:40:07;;;;;;;8.67;4.20;;;21.40;99.90;;;;;;5280585;28;20450;-48
2022/08/23 07:42:38;;;;;;;2.83;2.60;;;21.40;99.90;;;;;;5286357;28;20443;-49
2022/08/23 07:45:09;;;;;;;2.90;2.70;;;21.50;99.90;;;;;;5281668;28;20808;-52
2022/08/23 07:47:41;;;;;;;6.70;3.53;;;21.70;99.90;;;;;;5262583;28;20441;-48
2022/08/23 07:50:12;;;;;;;5.63;2.80;;;21.80;99.90;;;;;;5283576;28;20261;-50
2022/08/23 07:52:43;;;;;;;5.40;3.03;;;21.90;99.90;;;;;;5279832;28;20434;-46
2022/08/23 07:55:14;;;;;;;4.20;3.37;;;22.10;99.90;;;;;;5281469;28;20225;-47
2022/08/23 07:57:45;;;;;;;9.70;3.13;;;22.00;99.90;;;;;;5280913;28;20490;-48
2022/08/23 08:00:15;;;;;;;5.37;2.87;;;22.30;99.90;;;;;;5273305;28;20235;-48
2022/08/23 08:02:46;;;;;;;3.67;3.37;;;22.60;99.90;;;;;;5278029;28;20529;-47
2022/08/23 08:05:17;;;;;;;5.23;2.23;;;22.70;99.90;;;;;;5273733;28;20209;-45
2022/08/23 08:07:48;;;;;;;5.30;2.83;;;22.60;99.90;;;;;;5262255;28;20665;-50
2022/08/23 08:10:18;;;;;;;2.50;2.40;;;22.30;99.90;;;;;;5276455;28;20838;-50
2022/08/23 08:12:50;;;;;;;8.03;3.17;;;22.40;99.90;;;;;;5278350;28;20550;-50
2022/08/23 08:15:21;;;;;;;7.90;3.07;;;22.90;99.90;;;;;;5264309;28;20450;-46
2022/08/23 08:17:52;;;;;;;5.03;2.93;;;23.20;99.90;;;;;;5278846;28;21367;-54
2022/08/23 08:20:26;;;;;;;7.10;2.90;;;23.00;99.90;;;;;;5281347;28;20441;-51
2022/08/23 08:22:57;;;;;;;3.90;2.53;;;23.00;99.90;;;;;;5281554;28;20453;-47
2022/08/23 08:25:31;;;;;;;2.30;2.10;;;23.20;99.90;;;;;;5284948;28;20462;-47
2022/08/23 08:28:02;;;;;;;8.63;2.80;;;23.10;99.90;;;;;;5265340;28;20220;-49
2022/08/23 08:30:33;;;;;;;4.67;2.77;;;23.10;99.90;;;;;;5275695;28;20494;-47
2022/08/23 08:33:04;;;;;;;3.60;2.80;;;23.10;99.90;;;;;;5275088;28;20591;-49
2022/08/23 08:35:34;;;;;;;7.50;2.53;;;23.40;99.90;;;;;;5274594;28;20233;-49
2022/08/23 08:38:05;;;;;;;7.43;2.97;;;23.50;99.90;;;;;;5274825;28;20517;-52
2022/08/23 08:40:39;;;;;;;2.90;2.00;;;23.50;99.90;;;;;;5282766;28;20185;-53
2022/08/23 08:43:26;;;;;;;2.13;2.03;;;23.70;99.90;;;;;;5278796;28;20301;-54
2022/08/23 08:46:07;;;;;;;7.77;2.77;;;24.00;99.90;;;;;;5280141;27;21037;-48
2022/08/23 08:48:46;;;;;;;2.30;2.17;;;24.00;99.90;;;;;;5278486;27;20481;-53
2022/08/23 08:51:40;;;;;;;4.80;2.67;;;23.80;99.90;;;;;;5285073;28;20462;-53
2022/08/23 08:54:15;;;;;;;3.03;2.00;;;23.80;99.90;;;;;;5278389;27;20419;-53
2022/08/23 08:56:51;;;;;;;3.57;2.47;;;23.80;99.90;;;;;;5284267;28;20440;-54
2022/08/23 08:59:28;;;;;;;3.27;2.30;;;23.90;99.90;;;;;;5284681;28;20423;-54
2022/08/23 09:01:58;;;;;;;2.57;2.13;;;24.10;99.90;;;;;;5280529;28;20496;-54
2022/08/23 09:04:30;;;;;;;4.20;2.50;;;24.00;99.90;;;;;;5287124;27;20454;-54
2022/08/23 09:07:13;;;;;;;1.80;1.77;;;23.90;99.90;;;;;;5288689;27;20543;-55
2022/08/23 09:10:18;;;;;;;7.17;2.30;;;23.80;99.90;;;;;;5283723;28;20460;-53
2022/08/23 09:13:17;;;;;;;2.60;1.60;;;23.50;99.90;;;;;;5246556;28;20477;-53
2022/08/23 09:16:14;;;;;;;2.87;2.67;;;23.50;99.90;;;;;;5274687;28;20538;-51
2022/08/23 09:18:45;;;;;;;6.73;2.20;;;23.40;99.90;;;;;;5279641;27;20438;-53
2022/08/23 09:21:16;;;;;;;3.73;1.83;;;23.40;99.90;;;;;;5280254;28;20798;-53
2022/08/23 09:23:49;;;;;;;3.50;2.03;;;23.30;99.90;;;;;;5279204;27;20459;-52
2022/08/23 09:26:26;;;;;;;1.93;1.83;;;23.40;99.90;;;;;;5238481;22;20502;-51
2022/08/23 09:29:09;;;;;;;2.40;2.20;;;23.50;99.90;;;;;;5202449;28;20434;-49
2022/08/23 09:32:01;;;;;;;2.97;2.30;;;23.60;99.90;;;;;;5204086;28;20478;-50
2022/08/23 09:34:35;;;;;;;2.57;2.40;;;23.60;99.90;;;;;;5191633;28;20482;-50
2022/08/23 09:37:23;;;;;;;1.80;1.70;;;23.70;99.90;;;;;;5219167;28;20445;-49
2022/08/23 09:40:16;;;;;;;3.03;1.50;;;23.90;99.90;;;;;;5203558;28;20802;-51
2022/08/23 09:43:05;;;;;;;3.70;2.57;;;24.00;99.90;;;;;;5202400;28;20431;-51
2022/08/23 09:45:38;;;;;;;2.20;2.00;;;23.90;99.90;;;;;;5201908;28;20918;-50
2022/08/23 09:48:12;;;;;;;2.30;1.83;;;23.80;99.90;;;;;;5200427;28;20536;-51
2022/08/23 09:50:53;;;;;;;4.90;2.63;;;23.70;99.90;;;;;;5201793;28;20893;-49
2022/08/23 09:53:26;;;;;;;2.10;1.97;;;23.70;99.90;;;;;;5198829;28;20785;-51
2022/08/23 09:56:12;;;;;;;4.03;2.60;;;23.80;99.90;;;;;;5219931;28;20453;-51
2022/08/23 09:58:45;;;;;;;3.07;2.73;;;23.90;99.90;;;;;;5203038;28;20437;-52
2022/08/23 10:01:25;;;;;;;4.53;2.60;;;23.90;99.90;;;;;;5197424;28;20430;-51
2022/08/23 10:04:11;;;;;;;2.30;2.10;;;23.90;99.90;;;;;;5195657;28;20443;-52
2022/08/23 10:06:45;;;;;;;3.50;3.20;;;23.90;99.90;;;;;;5189347;28;20458;-51
2022/08/23 10:09:26;;;;;;;3.27;2.67;;;23.90;99.90;;;;;;5202455;28;21172;-52
2022/08/23 10:11:59;;;;;;;4.47;3.53;;;24.00;99.90;;;;;;5214251;28;20847;-50
2022/08/23 10:14:31;;;;;;;2.80;2.60;;;24.00;99.70;;;;;;5207186;28;20422;-51
2022/08/23 10:17:13;;;;;;;4.07;3.00;;;23.90;99.50;;;;;;5202625;28;20438;-51
2022/08/23 10:20:25;;;;;;;3.70;2.60;;;24.00;99.10;;;;;;5200281;28;20434;-52
2022/08/23 10:23:23;;;;;;;2.80;2.60;;;24.00;98.00;;;;;;5195663;28;20450;-53
2022/08/23 10:25:57;;;;;;;4.30;2.63;;;24.00;98.90;;;;;;5199010;28;20482;-51
2022/08/23 10:32:20;;;;;;;3.50;2.73;;;24.70;97.70;;;;;;5194746;28;20446;-53
2022/08/23 10:35:01;;;;;;;4.37;2.83;;;24.90;96.90;;;;;;5197427;28;20465;-51
2022/08/23 10:37:56;;;;;;;5.13;3.07;;;24.60;94.60;;;;;;5189418;28;20903;-51
2022/08/23 10:40:43;;;;;;;2.70;2.50;;;24.40;94.50;;;;;;5193241;28;20477;-53
2022/08/23 10:43:49;;;;;;;2.90;2.50;;;24.50;93.80;;;;;;5205239;28;20478;-51
2022/08/23 10:46:22;;;;;;;2.60;2.50;;;24.70;93.90;;;;;;5202084;28;20469;-52
2022/08/23 10:48:58;;;;;;;2.43;2.20;;;24.80;94.10;;;;;;5200491;28;20445;-50
2022/08/23 10:51:31;;;;;;;5.53;2.40;;;25.10;93.80;;;;;;5199320;28;20481;-51
2022/08/23 10:54:45;;;;;;;5.70;2.00;;;25.10;92.00;;;;;;5203961;28;20552;-51
2022/08/23 10:57:19;;;;;;;3.70;2.30;;;25.10;91.50;;;;;;5190999;28;20452;-52
2022/08/23 10:59:51;;;;;;;5.20;2.47;;;25.10;91.10;;;;;;5216233;28;20588;-52
2022/08/23 11:02:28;;;;;;;3.63;2.30;;;25.20;90.50;;;;;;5200917;28;20439;-51
2022/08/23 11:05:06;;;;;;;2.13;1.93;;;25.40;90.50;;;;;;5217272;28;20465;-51
2022/08/23 11:07:41;;;;;;;2.93;2.00;;;25.90;90.20;;;;;;5203405;28;20445;-52
2022/08/23 11:10:30;;;;;;;2.50;2.30;;;26.30;85.00;;;;;;5201958;28;20568;-51
2022/08/23 11:13:10;;;;;;;2.13;2.03;;;26.30;82.10;;;;;;5202315;28;20434;-51
2022/08/23 11:15:44;;;;;;;5.40;2.23;;;26.30;80.80;;;;;;5193619;28;20463;-51
2022/08/23 11:18:45;;;;;;;2.50;2.00;;;26.00;80.80;;;;;;5210849;28;20489;-51
2022/08/23 11:21:16;;;;;;;1.83;1.67;;;25.80;81.10;;;;;;5195352;28;20480;-52
2022/08/23 11:23:59;;;;;;;2.00;1.80;;;25.60;81.90;;;;;;5210687;28;20465;-52
2022/08/23 11:26:36;;;;;;;2.27;2.17;;;25.50;82.90;;;;;;5199483;28;20235;-52
2022/08/23 11:29:07;;;;;;;5.93;2.20;;;25.60;82.40;;;;;;5196241;28;20449;-52
2022/08/23 11:31:41;;;;;;;5.50;2.20;;;25.70;79.10;;;;;;5202979;28;20892;-52
2022/08/23 11:34:20;;;;;;;4.23;1.83;;;25.70;78.90;;;;;;5190135;28;20206;-50
2022/08/23 11:37:18;;;;;;;7.40;2.30;;;25.70;79.20;;;;;;5197699;28;20470;-52
2022/08/23 11:39:57;;;;;;;3.60;2.13;;;25.60;79.60;;;;;;5204573;28;20544;-52
2022/08/23 11:42:28;;;;;;;3.13;2.23;;;25.50;79.80;;;;;;5203416;28;20445;-50
2022/08/23 11:44:59;;;;;;;8.93;2.37;;;25.60;79.60;;;;;;5199839;28;20462;-52
2022/08/23 11:47:42;;;;;;;7.63;2.30;;;25.50;78.50;;;;;;5197203;28;20183;-51
2022/08/23 11:50:56;;;;;;;2.30;2.20;;;25.40;77.90;;;;;;5202246;28;20470;-52
2022/08/23 11:53:49;;;;;;;2.90;2.17;;;25.60;76.90;;;;;;5214120;28;20445;-52
2022/08/23 11:56:27;;;;;;;3.00;2.50;;;25.60;75.40;;;;;;5197074;28;20974;-52
2022/08/23 11:59:18;;;;;;;2.10;1.90;;;25.50;74.70;;;;;;5194240;28;20444;-54
2022/08/23 12:01:49;;;;;;;3.43;2.60;;;25.60;74.60;;;;;;5211864;28;20439;-51
2022/08/23 12:04:44;;;;;;;2.10;2.00;;;25.70;74.60;;;;;;5203448;28;20446;-51
2022/08/23 12:07:44;;;;;;;2.63;2.50;;;25.60;72.90;;;;;;5195150;28;20240;-51
2022/08/23 12:10:22;;;;;;;1.93;1.60;;;25.60;73.20;;;;;;5211119;28;20772;-51
2022/08/23 12:13:17;;;;;;;4.30;2.00;;;25.60;71.70;;;;;;5203748;28;20925;-52
2022/08/23 12:16:05;;;;;;;3.53;1.73;;;25.30;71.30;;;;;;5208906;28;20938;-51
2022/08/23 12:18:45;;;;;;;5.60;2.03;;;25.40;70.50;;;;;;5191242;28;20470;-51
2022/08/23 12:21:26;;;;;;;3.50;1.83;;;25.40;70.30;;;;;;5207794;28;20476;-51
2022/08/23 12:24:12;;;;;;;2.80;1.50;;;25.50;70.50;;;;;;5196987;28;20449;-51
2022/08/23 12:26:59;;;;;;;1.70;1.60;;;25.70;70.40;;;;;;5197541;28;20836;-51
2022/08/23 12:29:49;;;;;;;3.77;1.90;;;25.70;69.30;;;;;;5197470;28;20461;-52
2022/08/23 12:32:39;;;;;;;2.57;1.30;;;25.60;70.70;;;;;;5204807;28;20926;-51
2022/08/23 12:35:13;;;;;;;1.60;1.50;;;25.50;71.70;;;;;;5201198;28;20465;-51
2022/08/23 12:38:03;;;;;;;2.80;1.90;;;25.30;71.40;;;;;;5196486;28;21168;-52
2022/08/23 12:40:40;;;;;;;1.67;1.57;;;25.20;73.00;;;;;;5202016;28;20438;-51
2022/08/23 12:43:20;;;;;;;2.20;1.37;;;25.50;73.20;;;;;;5203639;28;20533;-51
2022/08/23 12:45:54;;;;;;;4.33;1.90;;;25.70;73.50;;;;;;5204340;28;20450;-51
2022/08/23 12:48:28;;;;;;;1.70;1.60;;;25.90;73.20;;;;;;5205165;28;20446;-52
2022/08/23 12:51:06;;;;;;;1.37;1.30;;;25.80;70.60;;;;;;5186884;28;21029;-51
2022/08/23 12:53:41;;;;;;;1.90;1.80;;;25.50;68.90;;;;;;5205176;28;20456;-52
2022/08/23 12:56:24;;;;;;;4.97;2.00;;;25.30;70.50;;;;;;5194794;28;20544;-51
2022/08/23 12:59:03;;;;;;;2.50;1.93;;;25.30;71.20;;;;;;5190366;28;20814;-53
2022/08/23 13:01:37;;;;;;;1.53;1.53;;;25.50;70.10;;;;;;5199935;28;20917;-49
2022/08/23 13:04:13;;;;;;;5.20;1.60;;;25.60;69.50;;;;;;5192787;28;20779;-51
2022/08/23 13:06:45;;;;;;;3.27;3.03;;;25.80;69.00;;;;;;5197802;28;20462;-50
2022/08/23 13:09:18;;;;;;;1.17;1.17;;;26.00;68.40;;;;;;5208442;28;20474;-49
2022/08/23 13:11:49;;;;;;;8.90;5.43;;;26.00;67.60;;;;;;5213223;28;20462;-50
2022/08/23 13:14:28;;;;;;;3.43;2.13;;;25.90;68.90;;;;;;5204206;28;20553;-53
2022/08/23 13:17:13;;;;;;;5.23;2.10;;;25.80;69.60;;;;;;5202820;28;20183;-49
2022/08/23 13:19:45;;;;;;;2.30;2.20;;;25.80;69.30;;;;;;5195704;28;20472;-50
2022/08/23 13:22:24;;;;;;;5.37;2.63;;;25.80;67.50;;;;;;5198836;28;20460;-52
2022/08/23 13:25:13;;;;;;;1.73;1.63;;;25.90;67.10;;;;;;5198625;28;20483;-49
2022/08/23 13:27:43;;;;;;;1.47;1.37;;;25.80;66.10;;;;;;5198470;28;20495;-50
2022/08/23 13:30:15;;;;;;;4.03;2.20;;;25.70;66.20;;;;;;5203811;28;20958;-51
2022/08/23 13:32:49;;;;;;;1.70;1.60;;;25.90;67.10;;;;;;5193190;28;20239;-48
2022/08/23 13:35:36;;;;;;;2.63;1.53;;;26.10;65.60;;;;;;5201494;28;20981;-51
2022/08/23 13:38:07;;;;;;;2.70;1.87;;;26.10;65.40;;;;;;5200312;28;20444;-49